Speaks, Texas
Current Conditions -  °F | °C
As of 2:35 PM on Monday 22 Dec 2014 (Local Time) from K66R Reporting Station
Clear Clear  
Wind Chill: 21°   Ceiling: Unl
Heat Index: 21°   Visibility: 10mi
Dew Point: 15°   Wind: 8mph
Humidity: 70%   Direction: 200°SSW
Pressure: 29.63"   Gusts: NA
Location:  29.25°N, 96.7°W
Report Text: K66R 222035Z AUTO 20007KT 10SM CLR 21/15 A2963 RMK AO2 T02060149
Loading
Personal Weather Stations






























Interactive Weather Map New forecast layout! Learn more

10-Day Weather Forecast

Advertisements
Track Severe Weather on mobile